Airfield :
LOGIN :

Register | Disclaimer

   EN    FR    IT 

 










Legend :    VFR   Marginal VFR   IFR   Intensive IFR   Very Intensive IFR
Visi :
Ceiling :
>= 8 km
>= 3000ft
5 to 8 km
1000 to 3000 ft
1500m to 5 km
500 to 1000 ft
800 to 1500m
200 to 500 ft
< 800m
< 200 ft
Symbols :   Thunderstorms  Fog  Heavy snow  Heavy precipitations  Wind > 20 kt
SIGMETs :     Misc.  Thunderstorms  Icing  Turbulence  Mountain Waves  Volcanic Ashes







- Airport Elevation : 14 ft
- IATA code : BRE


EDDW - Bremen Neuenland

CURRENT METAR :
  • 261150Z 34014KT 310V010 9999 -RA SCT015 BKN022 06/04 Q1027 TEMPO 29015G25KT

EXPIRED METARs :
  • 261120Z 30016KT 9999 -RA FEW015 BKN022 08/05 Q1027 TEMPO 29015G25KT
  • 261050Z 30014KT 9999 -RA FEW015 BKN021 08/05 Q1027 TEMPO 29015G25KT
  • 261020Z 28015KT 9999 SCT021 BKN040 08/04 Q1027 TEMPO 29015G25KT
  • 260950Z 29016KT 9999 BKN022 08/04 Q1027 TEMPO 29015G25KT
  • 260920Z 28015KT 9999 BKN022 07/04 Q1027 TEMPO 29015G25KT

TAF TAF EDDW
Valid from the 26 at 12:00 until the 27 at 12:00 UTC


261100Z 2612/2712 30012KT 9999 FEW015 BKN030
TEMPO 2612/2614 31015G25KT
BECMG 2619/2621 28007KT
TEMPO 2623/2710 BKN006
PROB30
TEMPO 2623/2704 4000 BR BKN003
BECMG 2710/2712 28012KT OVC008
TEMPO 2710/2712 3500 -DZRA
No reported NOTAMs for that airfield.



MET'MAP, your aeronautical weather chart ! - Copyright ORBIFLY December 2007 - Disclaimer

ORBIFLY MET'MAP TEAM :

Programming & Development : Alexandra Zaïnal
Concept & Development : Baudouin d'Aumeries
Co-Development & Prog : Marc-Olivier Méhu
Technical & hardware support : Manuel Goepfert

Contact : metmap@orbifly.com




SOURCES & CREDITS :

   NOAA